createdAt,value
2019-05-03T00:01:54.055Z,0.00
2019-05-03T00:05:02.407Z,0.00
2019-05-03T00:07:54.008Z,0.00
2019-05-03T00:10:53.949Z,0.00
2019-05-03T00:13:53.930Z,0.00
2019-05-03T00:16:55.398Z,0.00
2019-05-03T00:19:53.866Z,0.00
2019-05-03T00:22:53.818Z,0.00
2019-05-03T00:25:53.798Z,0.00
2019-05-03T00:28:53.768Z,0.00
2019-05-03T00:31:53.725Z,0.00
2019-05-03T00:34:53.704Z,0.00
2019-05-03T00:37:53.667Z,0.00
2019-05-03T00:40:53.641Z,0.00
2019-05-03T00:43:53.617Z,0.00
2019-05-03T00:46:53.562Z,0.00
2019-05-03T00:49:53.540Z,0.00
2019-05-03T00:52:53.496Z,0.00
2019-05-03T00:55:53.475Z,0.00
2019-05-03T00:58:53.432Z,0.00
2019-05-03T01:01:53.414Z,0.00
2019-05-03T01:04:53.380Z,0.00
2019-05-03T01:07:53.337Z,0.00
2019-05-03T01:10:53.315Z,0.00
2019-05-03T01:13:53.271Z,0.00
2019-05-03T01:16:53.263Z,0.00
2019-05-03T01:19:53.207Z,0.00
2019-05-03T01:22:53.185Z,0.00
2019-05-03T01:25:53.152Z,0.00
2019-05-03T01:28:53.116Z,0.00
2019-05-03T01:31:53.091Z,0.00
2019-05-03T01:34:53.045Z,0.00
2019-05-03T01:37:53.024Z,0.00
2019-05-03T01:40:52.980Z,0.00
2019-05-03T01:43:52.960Z,0.00
2019-05-03T01:46:52.934Z,0.00
2019-05-03T01:49:52.887Z,0.00
2019-05-03T01:52:52.862Z,0.00
2019-05-03T01:55:52.837Z,0.00
2019-05-03T01:58:52.803Z,0.00
2019-05-03T02:01:52.755Z,0.00
2019-05-03T02:04:53.403Z,0.00
2019-05-03T02:07:52.699Z,0.00
2019-05-03T02:10:52.655Z,0.00
2019-05-03T02:13:52.635Z,0.00
2019-05-03T02:16:52.593Z,0.00
2019-05-03T02:19:52.947Z,0.00
2019-05-03T02:22:52.529Z,0.00
2019-05-03T02:25:56.813Z,0.00
2019-05-03T02:28:53.461Z,0.00
2019-05-03T02:31:53.437Z,0.00
2019-05-03T02:34:53.472Z,0.00
2019-05-03T02:37:53.159Z,0.00
2019-05-03T02:40:53.263Z,0.00
2019-05-03T02:43:52.301Z,0.00
2019-05-03T02:46:52.281Z,0.00
2019-05-03T02:49:52.240Z,0.00
2019-05-03T02:52:52.217Z,0.00
2019-05-03T02:55:52.172Z,0.00
2019-05-03T02:58:52.155Z,0.00
2019-05-03T03:01:52.120Z,0.00
2019-05-03T03:04:52.076Z,0.00
2019-05-03T03:07:52.057Z,0.00
2019-05-03T03:10:52.009Z,0.00
2019-05-03T03:13:51.989Z,0.00
2019-05-03T03:16:51.970Z,0.00
2019-05-03T03:19:51.914Z,0.00
2019-05-03T03:22:51.894Z,4.00
2019-05-03T03:25:51.849Z,4.00
2019-05-03T03:28:51.830Z,4.00
2019-05-03T03:31:51.830Z,4.00
2019-05-03T03:34:56.850Z,12.00
2019-05-03T03:37:55.643Z,12.00
2019-05-03T03:40:55.336Z,20.00
2019-05-03T03:43:55.538Z,32.00
2019-05-03T03:46:51.619Z,40.00
2019-05-03T03:49:51.606Z,60.00
2019-05-03T03:52:51.559Z,76.00
2019-05-03T03:55:51.538Z,100.00
2019-05-03T03:58:51.504Z,132.00
2019-05-03T04:01:51.476Z,156.00
2019-05-03T04:04:51.446Z,192.00
2019-05-03T04:07:51.396Z,232.00
2019-05-03T04:10:51.377Z,260.00
2019-05-03T04:13:51.332Z,292.00
2019-05-03T04:16:51.311Z,328.00
2019-05-03T04:19:51.272Z,372.00
2019-05-03T04:22:51.246Z,416.00
2019-05-03T04:25:51.221Z,500.00
2019-05-03T04:28:51.184Z,616.00
2019-05-03T04:31:51.136Z,716.00
2019-05-03T04:34:51.126Z,748.00
2019-05-03T04:37:51.087Z,756.00
2019-05-03T04:40:51.055Z,684.00
2019-05-03T04:43:51.019Z,760.00
2019-05-03T04:46:50.980Z,920.00
2019-05-03T04:49:50.954Z,964.00
2019-05-03T04:52:50.912Z,1104.00
2019-05-03T04:55:50.894Z,1224.00
2019-05-03T04:58:50.851Z,1452.00
2019-05-03T05:01:50.821Z,1696.00
2019-05-03T05:04:50.784Z,1800.00
2019-05-03T05:07:50.743Z,1800.00
2019-05-03T05:10:50.718Z,2036.00
2019-05-03T05:13:50.678Z,2464.00
2019-05-03T05:16:50.666Z,2988.00
2019-05-03T05:19:50.612Z,3436.00
2019-05-03T05:22:50.593Z,3712.00
2019-05-03T05:25:50.559Z,3808.00
2019-05-03T05:28:50.518Z,4592.00
2019-05-03T05:31:50.494Z,5300.00
2019-05-03T05:34:50.455Z,6104.00
2019-05-03T05:37:50.429Z,6576.00
2019-05-03T05:40:50.402Z,6872.00
2019-05-03T05:43:50.354Z,8100.00
2019-05-03T05:46:50.333Z,21600.00
2019-05-03T05:49:50.288Z,22688.00
2019-05-03T05:52:50.292Z,25120.00
2019-05-03T05:55:50.224Z,27904.00
2019-05-03T05:58:50.207Z,15232.00
2019-05-03T06:01:50.171Z,26656.00
2019-05-03T06:04:50.129Z,28992.00
2019-05-03T06:07:50.108Z,30560.00
2019-05-03T06:10:50.066Z,32512.00
2019-05-03T06:13:50.047Z,35264.00
2019-05-03T06:16:50.010Z,32640.00
2019-05-03T06:19:49.983Z,40512.00
2019-05-03T06:22:49.951Z,35104.00
2019-05-03T06:25:49.902Z,37728.00
2019-05-03T06:28:49.878Z,36576.00
2019-05-03T06:31:49.836Z,43456.00
2019-05-03T06:34:49.817Z,17024.00
2019-05-03T06:37:49.790Z,28832.00
2019-05-03T06:40:50.582Z,9120.00
2019-05-03T06:43:49.743Z,10176.00
2019-05-03T06:46:49.677Z,29472.00
2019-05-03T06:49:49.654Z,51488.00
2019-05-03T06:52:49.616Z,53216.00
2019-05-03T06:55:49.645Z,52736.00
2019-05-03T06:58:49.579Z,61088.00
2019-05-03T07:01:49.529Z,13116.00
2019-05-03T07:04:49.491Z,50016.00
2019-05-03T07:07:49.453Z,12948.00
2019-05-03T07:10:49.484Z,17088.00
2019-05-03T07:13:49.384Z,7800.00
2019-05-03T07:18:35.131Z,60736.00
2019-05-03T07:21:35.281Z,68608.00
2019-05-03T07:24:37.586Z,69152.00
2019-05-03T07:27:34.980Z,19200.00
2019-05-03T07:30:35.123Z,68864.00
2019-05-03T07:33:34.671Z,16320.00
2019-05-03T07:36:33.038Z,15024.00
2019-05-03T07:39:34.845Z,64704.00
2019-05-03T07:42:34.698Z,15904.00
2019-05-03T07:45:32.948Z,9296.00
2019-05-03T07:48:32.893Z,38272.00
2019-05-03T07:51:34.847Z,7440.00
2019-05-03T07:54:34.786Z,13000.00
2019-05-03T07:57:32.811Z,63584.00
2019-05-03T08:00:34.361Z,17856.00
2019-05-03T08:03:34.690Z,9792.00
2019-05-03T08:06:34.593Z,8360.00
2019-05-03T08:09:34.865Z,9488.00
2019-05-03T08:12:34.802Z,12092.00
2019-05-03T08:15:34.685Z,66048.00
2019-05-03T08:18:32.575Z,61632.00
2019-05-03T08:21:32.544Z,15080.00
2019-05-03T08:24:34.661Z,12756.00
2019-05-03T08:27:32.469Z,33728.00
2019-05-03T08:30:32.450Z,11880.00
2019-05-03T08:33:32.424Z,13052.00
2019-05-03T08:36:32.373Z,13016.00
2019-05-03T08:39:32.350Z,13764.00
2019-05-03T08:42:32.327Z,94144.00
2019-05-03T08:45:32.269Z,28800.00
2019-05-03T08:48:32.268Z,19648.00
2019-05-03T08:51:32.204Z,12776.00
2019-05-03T08:54:32.195Z,9396.00
2019-05-03T08:57:32.138Z,8756.00
2019-05-03T09:00:32.116Z,8648.00
2019-05-03T09:03:32.090Z,11204.00
2019-05-03T09:06:32.050Z,20576.00
2019-05-03T09:09:32.009Z,24128.00
2019-05-03T09:12:31.993Z,17376.00
2019-05-03T09:15:31.944Z,14388.00
2019-05-03T09:18:31.932Z,13652.00
2019-05-03T09:21:31.888Z,15840.00
2019-05-03T09:24:31.850Z,19872.00
2019-05-03T09:27:31.848Z,76576.00
2019-05-03T09:30:31.775Z,83488.00
2019-05-03T09:33:31.765Z,18784.00
2019-05-03T09:36:31.717Z,10596.00
2019-05-03T09:39:31.692Z,6700.00
2019-05-03T09:42:31.648Z,5496.00
2019-05-03T09:45:31.620Z,6288.00
2019-05-03T09:48:31.580Z,8020.00
2019-05-03T09:51:31.561Z,10800.00
2019-05-03T09:54:31.528Z,15468.00
2019-05-03T09:57:31.500Z,92640.00
2019-05-03T10:00:31.462Z,78016.00
2019-05-03T10:03:31.431Z,85984.00
2019-05-03T10:06:31.405Z,88032.00
2019-05-03T10:09:31.353Z,17632.00
2019-05-03T10:12:31.335Z,11920.00
2019-05-03T10:15:31.300Z,11396.00
2019-05-03T10:18:31.266Z,12424.00
2019-05-03T10:21:31.264Z,15008.00
2019-05-03T10:24:31.188Z,47264.00
2019-05-03T10:27:31.168Z,54880.00
2019-05-03T10:30:31.129Z,45088.00
2019-05-03T10:33:31.107Z,58272.00
2019-05-03T10:36:31.068Z,17056.00
2019-05-03T10:39:31.050Z,11944.00
2019-05-03T10:42:30.996Z,8632.00
2019-05-03T10:45:30.987Z,8352.00
2019-05-03T10:48:30.926Z,11328.00
2019-05-03T10:51:30.921Z,20544.00
2019-05-03T10:54:30.875Z,28992.00
2019-05-03T10:57:30.853Z,32448.00
2019-05-03T11:00:52.746Z,25408.00
2019-05-03T11:03:31.766Z,31072.00
2019-05-03T11:06:30.746Z,95328.00
2019-05-03T11:09:30.699Z,104320.00
2019-05-03T11:12:30.686Z,102304.00
2019-05-03T11:15:30.637Z,25088.00
2019-05-03T11:18:30.614Z,91584.00
2019-05-03T11:21:31.101Z,95264.00
2019-05-03T11:24:30.549Z,35200.00
2019-05-03T11:27:30.532Z,16608.00
2019-05-03T11:30:30.479Z,12832.00
2019-05-03T11:33:30.453Z,9856.00
2019-05-03T11:36:31.853Z,6668.00
2019-05-03T11:39:30.389Z,5516.00
2019-05-03T11:42:30.374Z,5788.00
2019-05-03T11:45:30.310Z,8616.00
2019-05-03T11:48:30.309Z,15296.00
2019-05-03T11:51:30.257Z,19136.00
2019-05-03T11:54:30.224Z,22272.00
2019-05-03T11:57:30.202Z,75936.00
2019-05-03T12:00:30.184Z,63264.00
2019-05-03T12:03:30.116Z,32160.00
2019-05-03T12:06:30.096Z,24000.00
2019-05-03T12:09:30.048Z,22240.00
2019-05-03T12:12:30.032Z,18112.00
2019-05-03T12:15:30.035Z,14120.00
2019-05-03T12:18:29.980Z,10320.00
2019-05-03T12:21:31.198Z,11248.00
2019-05-03T12:24:30.701Z,12564.00
2019-05-03T12:27:29.863Z,12008.00
2019-05-03T12:30:29.836Z,11936.00
2019-05-03T12:33:29.812Z,14424.00
2019-05-03T12:36:29.754Z,65856.00
2019-05-03T12:39:30.741Z,20320.00
2019-05-03T12:42:30.697Z,13740.00
2019-05-03T12:45:29.679Z,8496.00
2019-05-03T12:48:29.666Z,6536.00
2019-05-03T12:51:29.603Z,7484.00
2019-05-03T12:54:29.572Z,11672.00
2019-05-03T12:57:29.529Z,13828.00
2019-05-03T13:00:29.507Z,18336.00
2019-05-03T13:03:30.421Z,26720.00
2019-05-03T13:06:29.446Z,34816.00
2019-05-03T13:09:29.404Z,48512.00
2019-05-03T13:12:29.374Z,33344.00
2019-05-03T13:15:29.333Z,31552.00
2019-05-03T13:18:29.318Z,14512.00
2019-05-03T13:21:29.279Z,8616.00
2019-05-03T13:24:29.243Z,8652.00
2019-05-03T13:27:29.203Z,12264.00
2019-05-03T13:30:29.193Z,39328.00
2019-05-03T13:33:36.195Z,36512.00
2019-05-03T13:36:29.114Z,15220.00
2019-05-03T13:39:29.068Z,12772.00
2019-05-03T13:42:29.051Z,25248.00
2019-05-03T13:45:29.029Z,19008.00
2019-05-03T13:48:41.510Z,13132.00
2019-05-03T13:51:29.950Z,12692.00
2019-05-03T13:54:28.912Z,14724.00
2019-05-03T13:57:28.887Z,12672.00
2019-05-03T14:00:28.840Z,13460.00
2019-05-03T14:03:28.825Z,23104.00
2019-05-03T14:06:28.790Z,16800.00
2019-05-03T14:09:28.752Z,16544.00
2019-05-03T14:12:28.737Z,16064.00
2019-05-03T14:15:28.694Z,12024.00
2019-05-03T14:18:28.646Z,10468.00
2019-05-03T14:21:28.627Z,13176.00
2019-05-03T14:24:28.596Z,19296.00
2019-05-03T14:27:28.550Z,20192.00
2019-05-03T14:30:28.527Z,20640.00
2019-05-03T14:33:28.503Z,13348.00
2019-05-03T14:36:28.461Z,14848.00
2019-05-03T14:39:28.436Z,13768.00
2019-05-03T14:42:28.387Z,11340.00
2019-05-03T14:45:28.370Z,9880.00
2019-05-03T14:48:28.334Z,9000.00
2019-05-03T14:51:28.286Z,7924.00
2019-05-03T14:54:28.272Z,7524.00
2019-05-03T14:57:28.302Z,7800.00
2019-05-03T15:00:28.198Z,8408.00
2019-05-03T15:03:28.186Z,8300.00
2019-05-03T15:06:28.141Z,7508.00
2019-05-03T15:09:28.092Z,8432.00
2019-05-03T15:12:28.077Z,9632.00
2019-05-03T15:15:28.905Z,10148.00
2019-05-03T15:18:28.004Z,10084.00
2019-05-03T15:21:27.967Z,9200.00
2019-05-03T15:24:27.940Z,8436.00
2019-05-03T15:27:27.905Z,6676.00
2019-05-03T15:30:27.858Z,5496.00
2019-05-03T15:33:28.991Z,4572.00
2019-05-03T15:36:27.815Z,4148.00
2019-05-03T15:39:27.787Z,4832.00
2019-05-03T15:42:27.736Z,4468.00
2019-05-03T15:45:27.712Z,3036.00
2019-05-03T15:48:27.681Z,2484.00
2019-05-03T15:51:27.634Z,3240.00
2019-05-03T15:54:27.605Z,4316.00
2019-05-03T15:57:27.591Z,6276.00
2019-05-03T16:00:27.549Z,7312.00
2019-05-03T16:03:27.509Z,6952.00
2019-05-03T16:06:27.473Z,7128.00
2019-05-03T16:09:27.454Z,7592.00
2019-05-03T16:12:27.402Z,7820.00
2019-05-03T16:15:27.382Z,8312.00
2019-05-03T16:18:27.361Z,7648.00
2019-05-03T16:21:27.308Z,12128.00
2019-05-03T16:24:27.282Z,6116.00
2019-05-03T16:27:27.261Z,6448.00
2019-05-03T16:30:27.228Z,6112.00
2019-05-03T16:33:28.293Z,5096.00
2019-05-03T16:36:27.154Z,3520.00
2019-05-03T16:39:27.114Z,3000.00
2019-05-03T16:42:27.074Z,3648.00
2019-05-03T16:45:27.057Z,4152.00
2019-05-03T16:48:27.008Z,4056.00
2019-05-03T16:51:26.988Z,3580.00
2019-05-03T16:54:26.945Z,2988.00
2019-05-03T16:57:26.923Z,2228.00
2019-05-03T17:00:26.891Z,2524.00
2019-05-03T17:03:38.137Z,3008.00
2019-05-03T17:06:27.810Z,2716.00
2019-05-03T17:09:26.812Z,2580.00
2019-05-03T17:12:26.758Z,2776.00
2019-05-03T17:15:26.722Z,2304.00
2019-05-03T17:18:26.693Z,1940.00
2019-05-03T17:21:26.698Z,1876.00
2019-05-03T17:24:26.611Z,1524.00
2019-05-03T17:27:26.599Z,1000.00
2019-05-03T17:30:34.087Z,680.00
2019-05-03T17:33:27.532Z,616.00
2019-05-03T17:36:26.493Z,732.00
2019-05-03T17:39:26.461Z,844.00
2019-05-03T17:42:26.435Z,864.00
2019-05-03T17:45:26.420Z,800.00
2019-05-03T17:48:26.349Z,744.00
2019-05-03T17:51:26.331Z,632.00
2019-05-03T17:54:26.307Z,544.00
2019-05-03T17:57:26.268Z,456.00
2019-05-03T18:00:26.218Z,540.00
2019-05-03T18:03:26.199Z,908.00
2019-05-03T18:06:26.152Z,1104.00
2019-05-03T18:09:26.154Z,984.00
2019-05-03T18:12:26.083Z,844.00
2019-05-03T18:15:26.063Z,968.00
2019-05-03T18:18:26.050Z,940.00
2019-05-03T18:21:25.986Z,804.00
2019-05-03T18:24:25.987Z,560.00
2019-05-03T18:27:25.930Z,404.00
2019-05-03T18:30:25.901Z,312.00
2019-05-03T18:33:25.857Z,296.00
2019-05-03T18:36:25.837Z,220.00
2019-05-03T18:39:25.812Z,136.00
2019-05-03T18:42:25.764Z,100.00
2019-05-03T18:45:25.742Z,68.00
2019-05-03T18:48:26.523Z,56.00
2019-05-03T18:51:25.675Z,40.00
2019-05-03T18:54:25.655Z,28.00
2019-05-03T18:57:25.731Z,16.00
2019-05-03T19:00:25.568Z,12.00
2019-05-03T19:03:25.541Z,8.00
2019-05-03T19:06:25.512Z,4.00
2019-05-03T19:09:25.465Z,4.00
2019-05-03T19:12:26.445Z,0.00
2019-05-03T19:15:25.405Z,4.00
2019-05-03T19:18:25.379Z,0.00
2019-05-03T19:21:25.347Z,0.00
2019-05-03T19:24:25.302Z,0.00
2019-05-03T19:27:25.318Z,0.00
2019-05-03T19:30:25.232Z,0.00
2019-05-03T19:33:32.257Z,0.00
2019-05-03T19:36:25.194Z,0.00
2019-05-03T19:39:25.335Z,0.00
2019-05-03T19:42:27.368Z,0.00
2019-05-03T19:45:25.071Z,0.00
2019-05-03T19:48:25.689Z,0.00
2019-05-03T19:51:25.011Z,0.00
2019-05-03T19:54:24.990Z,0.00
2019-05-03T19:57:24.948Z,0.00
2019-05-03T20:00:25.546Z,0.00
2019-05-03T20:03:24.878Z,0.00
2019-05-03T20:06:25.269Z,0.00
2019-05-03T20:09:24.829Z,0.00
2019-05-03T20:12:24.772Z,0.00
2019-05-03T20:15:24.748Z,0.00
2019-05-03T20:18:24.779Z,0.00
2019-05-03T20:21:25.239Z,0.00
2019-05-03T20:24:25.350Z,0.00
2019-05-03T20:27:24.607Z,0.00
2019-05-03T20:30:25.473Z,0.00
2019-05-03T20:33:24.726Z,0.00
2019-05-03T20:36:24.525Z,0.00
2019-05-03T20:39:25.403Z,0.00
2019-05-03T20:42:24.708Z,0.00
2019-05-03T20:45:24.880Z,0.00
2019-05-03T20:48:25.041Z,0.00
2019-05-03T20:51:25.187Z,0.00
2019-05-03T20:54:24.317Z,0.00
2019-05-03T20:57:24.758Z,0.00
2019-05-03T21:00:25.613Z,0.00
2019-05-03T21:03:24.824Z,0.00
2019-05-03T21:06:35.202Z,0.00
2019-05-03T21:09:25.159Z,0.00
2019-05-03T21:12:25.243Z,0.00
2019-05-03T21:15:24.709Z,0.00
2019-05-03T21:18:24.399Z,0.00
2019-05-03T21:21:24.893Z,0.00
2019-05-03T21:24:26.033Z,0.00
2019-05-03T21:27:24.713Z,0.00
2019-05-03T21:30:24.676Z,0.00
2019-05-03T21:33:25.771Z,0.00
2019-05-03T21:36:25.488Z,0.00
2019-05-03T21:39:24.728Z,0.00
2019-05-03T21:42:23.789Z,0.00
2019-05-03T21:45:24.711Z,0.00
2019-05-03T21:48:24.978Z,0.00
2019-05-03T21:51:24.485Z,0.00
2019-05-03T21:54:24.608Z,0.00
2019-05-03T21:57:25.298Z,0.00
2019-05-03T22:00:23.597Z,0.00
2019-05-03T22:03:25.234Z,0.00
2019-05-03T22:06:24.682Z,0.00
2019-05-03T22:09:23.503Z,0.00
2019-05-03T22:12:24.850Z,0.00
2019-05-03T22:15:23.422Z,0.00
2019-05-03T22:18:24.715Z,0.00
2019-05-03T22:21:23.375Z,0.00
2019-05-03T22:24:25.132Z,0.00
2019-05-03T22:27:24.639Z,0.00
2019-05-03T22:30:24.316Z,0.00
2019-05-03T22:33:23.229Z,0.00
2019-05-03T22:36:24.562Z,0.00
2019-05-03T22:39:24.932Z,0.00
2019-05-03T22:42:25.167Z,0.00
2019-05-03T22:45:23.104Z,0.00
2019-05-03T22:48:24.985Z,0.00
2019-05-03T22:51:24.470Z,0.00
2019-05-03T22:54:24.575Z,0.00
2019-05-03T22:57:24.552Z,0.00
2019-05-03T23:00:25.033Z,0.00
2019-05-03T23:03:24.876Z,0.00
2019-05-03T23:06:25.048Z,0.00
2019-05-03T23:09:24.751Z,0.00
2019-05-03T23:12:22.809Z,0.00
2019-05-03T23:15:24.408Z,0.00
2019-05-03T23:18:24.707Z,0.00
2019-05-03T23:21:24.396Z,0.00
2019-05-03T23:24:24.579Z,0.00
2019-05-03T23:27:24.843Z,0.00
2019-05-03T23:30:24.738Z,0.00
2019-05-03T23:33:22.577Z,0.00
2019-05-03T23:36:32.768Z,0.00
2019-05-03T23:39:24.963Z,0.00
2019-05-03T23:42:24.360Z,0.00
2019-05-03T23:45:22.457Z,0.00
2019-05-03T23:48:22.409Z,0.00
2019-05-03T23:51:22.389Z,0.00
2019-05-03T23:54:24.509Z,0.00
2019-05-03T23:57:22.333Z,0.00
